Time;durP1;ratioP1;P1;durP2;ratioP2;P2;SDS_P1;SDS_P2;PMS_P1;PMS_P2;Temp;Humidity;BMP_temperature;BMP_pressure;BME280_temperature;BME280_humidity;BME280_pressure;Samples;Min_cycle;Max_cycle;Signal;HPM_P1;HPM_P2
2022/09/24 00:01:18;;;;;;;16.60;8.75;;;;;;;;;;4916794;29;20071;-66
2022/09/24 00:03:55;;;;;;;15.82;9.32;;;;;;;;;;4895308;29;20352;-67
2022/09/24 00:06:21;;;;;;;14.27;9.70;;;;;;;;;;4896934;29;20029;-65
2022/09/24 00:08:49;;;;;;;13.57;9.05;;;;;;;;;;4908799;29;20198;-66
2022/09/24 00:11:16;;;;;;;14.43;9.07;;;;;;;;;;4916603;29;20483;-65
2022/09/24 00:13:42;;;;;;;14.52;8.25;;;;;;;;;;4906171;29;20127;-66
2022/09/24 00:16:11;;;;;;;14.93;9.07;;;;;;;;;;4916604;29;20454;-66
2022/09/24 00:18:38;;;;;;;13.95;8.95;;;;;;;;;;4914719;29;20048;-67
2022/09/24 00:21:12;;;;;;;13.45;8.88;;;;;;;;;;4917581;29;20047;-65
2022/09/24 00:23:37;;;;;;;14.27;9.10;;;;;;;;;;4912946;29;20394;-66
2022/09/24 00:28:51;;;;;;;13.95;9.00;;;;;;;;;;4911329;29;20043;-66
2022/09/24 00:31:16;;;;;;;16.45;11.48;;;;;;;;;;4913900;29;20032;-66
2022/09/24 00:33:42;;;;;;;21.10;12.02;;;;;;;;;;4913094;29;20465;-66
2022/09/24 00:36:07;;;;;;;16.85;11.77;;;;;;;;;;4914935;29;20066;-67
2022/09/24 00:38:33;;;;;;;20.10;14.30;;;;;;;;;;4911559;29;20063;-66
2022/09/24 00:41:00;;;;;;;24.23;15.02;;;;;;;;;;4914789;29;20123;-66
2022/09/24 00:43:32;;;;;;;23.05;14.55;;;;;;;;;;4914346;29;20044;-67
2022/09/24 00:46:33;;;;;;;24.35;16.25;;;;;;;;;;4916187;29;20028;-66
2022/09/24 00:49:09;;;;;;;31.38;19.02;;;;;;;;;;4901417;29;20056;-66
2022/09/24 00:51:34;;;;;;;25.95;18.55;;;;;;;;;;4913028;29;20469;-67
2022/09/24 00:54:05;;;;;;;31.02;19.90;;;;;;;;;;4908836;29;20051;-66
2022/09/24 00:56:32;;;;;;;27.92;19.52;;;;;;;;;;4915644;29;20044;-67
2022/09/24 00:59:01;;;;;;;29.85;19.92;;;;;;;;;;4895849;29;20032;-67
2022/09/24 01:01:26;;;;;;;30.35;20.88;;;;;;;;;;4915163;29;20044;-67
2022/09/24 01:03:54;;;;;;;30.92;20.70;;;;;;;;;;4911122;29;20461;-66
2022/09/24 01:06:20;;;;;;;30.60;21.15;;;;;;;;;;4916652;29;20070;-66
2022/09/24 01:08:46;;;;;;;35.13;22.65;;;;;;;;;;4912212;29;20954;-67
2022/09/24 01:11:25;;;;;;;34.20;23.55;;;;;;;;;;4913256;29;20131;-67
2022/09/24 01:14:31;;;;;;;34.55;23.58;;;;;;;;;;4912985;29;20059;-67
2022/09/24 01:17:17;;;;;;;38.13;23.42;;;;;;;;;;4909937;29;20067;-67
2022/09/24 01:20:00;;;;;;;40.88;24.20;;;;;;;;;;4914975;29;20040;-68
2022/09/24 01:22:35;;;;;;;39.17;25.05;;;;;;;;;;4912876;29;20929;-67
2022/09/24 01:25:07;;;;;;;41.28;25.77;;;;;;;;;;4911951;29;20031;-67
2022/09/24 01:27:56;;;;;;;43.20;26.50;;;;;;;;;;4914404;29;20051;-67
2022/09/24 01:30:24;;;;;;;42.78;25.85;;;;;;;;;;4909118;29;20134;-67
2022/09/24 01:33:01;;;;;;;39.35;25.85;;;;;;;;;;4914914;29;20642;-67
2022/09/24 01:35:30;;;;;;;43.13;26.85;;;;;;;;;;4911728;29;20028;-67
2022/09/24 01:38:00;;;;;;;37.75;25.38;;;;;;;;;;4914327;29;20450;-67
2022/09/24 01:40:28;;;;;;;40.67;25.48;;;;;;;;;;4915021;29;20051;-67
2022/09/24 01:42:57;;;;;;;48.45;27.60;;;;;;;;;;4906822;29;20571;-67
2022/09/24 01:45:24;;;;;;;42.78;26.33;;;;;;;;;;4914117;29;20087;-67
2022/09/24 01:47:49;;;;;;;41.20;26.58;;;;;;;;;;4912330;29;20059;-67
2022/09/24 01:50:18;;;;;;;44.53;27.88;;;;;;;;;;4910939;29;20075;-67
2022/09/24 01:52:48;;;;;;;46.17;27.38;;;;;;;;;;4913836;29;20087;-67
2022/09/24 01:55:18;;;;;;;47.42;28.42;;;;;;;;;;4913569;29;20063;-67
2022/09/24 01:58:02;;;;;;;47.63;28.25;;;;;;;;;;4913794;29;20032;-67
2022/09/24 02:00:28;;;;;;;46.72;28.33;;;;;;;;;;4911810;29;20051;-68
2022/09/24 02:03:03;;;;;;;45.38;27.85;;;;;;;;;;4914074;29;20052;-67
2022/09/24 02:05:50;;;;;;;49.75;28.55;;;;;;;;;;4911283;29;20032;-67
2022/09/24 02:08:37;;;;;;;47.72;27.80;;;;;;;;;;4911565;29;20047;-67
2022/09/24 02:11:13;;;;;;;46.50;28.55;;;;;;;;;;4911848;29;20046;-67
2022/09/24 02:13:46;;;;;;;48.33;28.50;;;;;;;;;;4910982;29;20044;-67
2022/09/24 02:16:15;;;;;;;47.70;29.27;;;;;;;;;;4898353;29;20036;-67
2022/09/24 02:18:45;;;;;;;45.83;28.73;;;;;;;;;;4909713;29;20153;-67
2022/09/24 02:21:13;;;;;;;42.80;27.73;;;;;;;;;;4913861;29;20036;-67
2022/09/24 02:23:44;;;;;;;45.65;28.02;;;;;;;;;;4911425;29;20104;-68
2022/09/24 02:26:10;;;;;;;49.97;28.42;;;;;;;;;;4912543;29;20040;-67
2022/09/24 02:28:35;;;;;;;53.40;27.90;;;;;;;;;;4913714;29;20415;-67
2022/09/24 02:31:08;;;;;;;48.42;27.65;;;;;;;;;;4912822;29;20528;-67
2022/09/24 02:36:23;;;;;;;41.05;25.98;;;;;;;;;;4911918;29;20087;-67
2022/09/24 02:38:49;;;;;;;45.97;26.67;;;;;;;;;;4912851;29;20640;-67
2022/09/24 02:41:15;;;;;;;48.17;28.13;;;;;;;;;;4913305;29;20115;-67
2022/09/24 02:43:41;;;;;;;47.47;28.23;;;;;;;;;;4911571;29;20100;-67
2022/09/24 02:46:09;;;;;;;47.42;27.65;;;;;;;;;;4893500;29;20043;-67
2022/09/24 02:48:36;;;;;;;43.38;26.60;;;;;;;;;;4910169;29;20084;-68
2022/09/24 02:51:03;;;;;;;43.22;26.35;;;;;;;;;;4914396;29;20036;-67
2022/09/24 02:53:29;;;;;;;39.83;25.65;;;;;;;;;;4912708;29;20147;-67
2022/09/24 02:55:54;;;;;;;46.28;26.90;;;;;;;;;;4913505;29;20122;-67
2022/09/24 02:58:20;;;;;;;42.28;25.17;;;;;;;;;;4914237;29;20042;-67
2022/09/24 03:00:45;;;;;;;43.58;25.48;;;;;;;;;;4912717;29;20543;-67
2022/09/24 03:03:11;;;;;;;45.88;26.33;;;;;;;;;;4913731;29;20052;-67
2022/09/24 03:05:36;;;;;;;45.60;26.00;;;;;;;;;;4909589;29;20044;-67
2022/09/24 03:08:01;;;;;;;40.85;25.40;;;;;;;;;;4912443;29;20365;-67
2022/09/24 03:10:27;;;;;;;43.45;24.83;;;;;;;;;;4911960;29;20397;-67
2022/09/24 03:12:52;;;;;;;41.33;25.10;;;;;;;;;;4911161;29;20036;-68
2022/09/24 03:15:17;;;;;;;43.92;25.80;;;;;;;;;;4914973;29;20066;-67
2022/09/24 03:17:43;;;;;;;40.38;24.67;;;;;;;;;;4912679;29;20075;-67
2022/09/24 03:20:08;;;;;;;41.42;25.10;;;;;;;;;;4911488;29;20040;-67
2022/09/24 03:22:34;;;;;;;41.75;24.65;;;;;;;;;;4914371;29;20389;-68
2022/09/24 03:24:59;;;;;;;43.22;24.88;;;;;;;;;;4914630;29;20036;-67
2022/09/24 03:27:25;;;;;;;45.33;26.23;;;;;;;;;;4917484;29;20079;-67
2022/09/24 03:32:34;;;;;;;40.35;24.48;;;;;;;;;;4903375;29;20078;-68
2022/09/24 03:35:00;;;;;;;38.00;23.75;;;;;;;;;;4912599;29;20060;-67
2022/09/24 03:37:26;;;;;;;38.97;23.05;;;;;;;;;;4915773;29;20036;-68
2022/09/24 03:39:51;;;;;;;43.53;25.58;;;;;;;;;;4912768;29;20064;-68
2022/09/24 03:42:16;;;;;;;51.17;27.23;;;;;;;;;;4894892;29;20032;-68
2022/09/24 03:44:42;;;;;;;40.80;25.23;;;;;;;;;;4913578;29;20517;-67
2022/09/24 03:47:07;;;;;;;45.85;26.10;;;;;;;;;;4917036;29;20249;-67
2022/09/24 03:49:33;;;;;;;45.42;25.42;;;;;;;;;;4914968;29;20138;-67
2022/09/24 03:51:58;;;;;;;49.50;28.00;;;;;;;;;;4915907;29;20048;-67
2022/09/24 03:54:23;;;;;;;47.15;27.25;;;;;;;;;;4915907;29;20040;-67
2022/09/24 03:56:49;;;;;;;48.40;27.98;;;;;;;;;;4915107;29;20829;-67
2022/09/24 03:59:14;;;;;;;47.08;26.60;;;;;;;;;;4916175;29;20175;-67
2022/09/24 04:01:40;;;;;;;47.30;27.63;;;;;;;;;;4916658;29;20373;-67
2022/09/24 04:04:05;;;;;;;44.35;26.58;;;;;;;;;;4914687;29;20107;-67
2022/09/24 04:06:31;;;;;;;45.78;26.35;;;;;;;;;;4915322;29;20173;-67
2022/09/24 04:08:56;;;;;;;46.60;26.52;;;;;;;;;;4912660;29;20036;-67
2022/09/24 04:11:23;;;;;;;48.63;27.63;;;;;;;;;;4918225;29;20032;-67
2022/09/24 04:13:48;;;;;;;46.67;27.73;;;;;;;;;;4921768;29;20071;-68
2022/09/24 04:16:14;;;;;;;53.40;29.27;;;;;;;;;;4913478;29;20032;-67
2022/09/24 04:18:39;;;;;;;48.92;27.85;;;;;;;;;;4916013;29;20066;-68
2022/09/24 04:21:05;;;;;;;51.05;28.67;;;;;;;;;;4914392;29;20040;-67
2022/09/24 04:23:32;;;;;;;50.75;28.30;;;;;;;;;;4912508;29;20485;-67
2022/09/24 04:26:00;;;;;;;52.65;29.00;;;;;;;;;;4914415;29;20599;-67
2022/09/24 04:28:27;;;;;;;51.10;28.65;;;;;;;;;;4915332;29;20040;-67
2022/09/24 04:30:52;;;;;;;48.60;27.45;;;;;;;;;;4914903;29;20410;-67
2022/09/24 04:33:17;;;;;;;49.33;28.50;;;;;;;;;;4914534;29;20035;-67
2022/09/24 04:35:44;;;;;;;46.60;26.33;;;;;;;;;;4915315;29;20036;-68
2022/09/24 04:38:10;;;;;;;52.13;29.20;;;;;;;;;;4913667;29;20035;-67
2022/09/24 04:40:35;;;;;;;53.58;28.92;;;;;;;;;;4902734;29;20039;-68
2022/09/24 04:43:01;;;;;;;49.90;29.02;;;;;;;;;;4911691;29;20032;-67
2022/09/24 04:45:27;;;;;;;51.58;29.45;;;;;;;;;;4915876;29;20465;-67
2022/09/24 04:47:56;;;;;;;47.08;28.38;;;;;;;;;;4913916;29;20068;-67
2022/09/24 04:50:22;;;;;;;47.00;27.88;;;;;;;;;;4917029;29;20461;-67
2022/09/24 04:52:47;;;;;;;47.35;29.00;;;;;;;;;;4911351;29;20036;-67
2022/09/24 04:55:13;;;;;;;50.15;28.58;;;;;;;;;;4914998;29;20036;-67
2022/09/24 04:57:40;;;;;;;47.13;28.27;;;;;;;;;;4914192;29;20043;-67
2022/09/24 05:00:08;;;;;;;50.30;29.60;;;;;;;;;;4915832;29;20091;-67
2022/09/24 05:02:34;;;;;;;47.72;27.95;;;;;;;;;;4910970;29;20107;-67
2022/09/24 05:04:59;;;;;;;48.15;27.70;;;;;;;;;;4899834;29;20127;-67
2022/09/24 05:07:25;;;;;;;54.00;29.25;;;;;;;;;;4916109;29;20574;-67
2022/09/24 05:09:50;;;;;;;46.90;27.55;;;;;;;;;;4915911;29;20043;-67
2022/09/24 05:12:15;;;;;;;49.53;27.90;;;;;;;;;;4914208;29;20059;-67
2022/09/24 05:14:41;;;;;;;45.17;28.17;;;;;;;;;;4915677;29;20106;-67
2022/09/24 05:17:06;;;;;;;46.53;27.30;;;;;;;;;;4915711;29;20040;-67
2022/09/24 05:19:32;;;;;;;46.70;27.70;;;;;;;;;;4915367;29;20039;-67
2022/09/24 05:21:57;;;;;;;51.28;27.48;;;;;;;;;;4921640;29;20043;-67
2022/09/24 05:24:23;;;;;;;51.35;28.08;;;;;;;;;;4916354;29;20039;-67
2022/09/24 05:29:32;;;;;;;52.78;26.88;;;;;;;;;;4913877;29;20051;-68
2022/09/24 05:31:59;;;;;;;45.35;26.13;;;;;;;;;;4916458;29;20381;-67
2022/09/24 05:34:24;;;;;;;44.80;26.00;;;;;;;;;;4914409;29;20043;-67
2022/09/24 05:36:50;;;;;;;45.20;26.60;;;;;;;;;;4898482;29;20044;-68
2022/09/24 05:39:15;;;;;;;43.50;26.80;;;;;;;;;;4925234;29;20491;-67
2022/09/24 05:41:42;;;;;;;43.28;25.63;;;;;;;;;;4919578;29;20036;-68
2022/09/24 05:44:10;;;;;;;40.88;25.48;;;;;;;;;;4913958;29;20066;-68
2022/09/24 05:46:36;;;;;;;50.42;27.20;;;;;;;;;;4914005;29;20123;-67
2022/09/24 05:49:02;;;;;;;46.00;26.33;;;;;;;;;;4916109;29;20491;-67
2022/09/24 05:51:27;;;;;;;40.35;26.08;;;;;;;;;;4915494;29;20028;-67
2022/09/24 05:53:52;;;;;;;43.40;26.83;;;;;;;;;;4914442;29;20032;-68
2022/09/24 05:56:18;;;;;;;44.03;25.80;;;;;;;;;;4915333;29;20118;-67
2022/09/24 05:58:43;;;;;;;44.38;25.80;;;;;;;;;;4914064;29;20024;-67
2022/09/24 06:01:08;;;;;;;42.80;25.67;;;;;;;;;;4913793;29;20118;-66
2022/09/24 06:03:34;;;;;;;44.17;25.63;;;;;;;;;;4894631;29;20064;-67
2022/09/24 06:06:01;;;;;;;44.60;25.83;;;;;;;;;;4915687;29;20044;-64
2022/09/24 06:08:28;;;;;;;43.45;26.38;;;;;;;;;;4914346;29;20075;-63
2022/09/24 06:11:05;;;;;;;40.28;25.52;;;;;;;;;;4914260;29;20067;-60
2022/09/24 06:13:33;;;;;;;41.20;25.55;;;;;;;;;;4896199;29;20051;-61
2022/09/24 06:16:04;;;;;;;43.67;25.77;;;;;;;;;;4915721;29;20042;-60
2022/09/24 06:18:30;;;;;;;44.50;27.42;;;;;;;;;;4914158;29;20032;-62
2022/09/24 06:21:02;;;;;;;43.70;26.73;;;;;;;;;;4914653;29;20032;-65
2022/09/24 06:23:28;;;;;;;40.58;25.90;;;;;;;;;;4909784;29;20400;-63
2022/09/24 06:25:53;;;;;;;44.58;25.88;;;;;;;;;;4909654;29;20095;-66
2022/09/24 06:28:18;;;;;;;41.35;26.65;;;;;;;;;;4914149;29;20036;-66
2022/09/24 06:30:44;;;;;;;40.75;25.20;;;;;;;;;;4913174;29;20040;-66
2022/09/24 06:33:12;;;;;;;41.97;26.02;;;;;;;;;;4909087;29;20035;-66
2022/09/24 06:35:41;;;;;;;39.28;24.58;;;;;;;;;;4913175;29;20058;-64
2022/09/24 06:38:10;;;;;;;39.53;24.52;;;;;;;;;;4913529;29;20178;-64
2022/09/24 06:40:36;;;;;;;39.00;25.15;;;;;;;;;;4914305;29;20036;-65
2022/09/24 06:43:01;;;;;;;35.30;24.00;;;;;;;;;;4913528;29;20396;-65
2022/09/24 06:45:27;;;;;;;34.38;23.75;;;;;;;;;;4913584;29;20032;-66
2022/09/24 06:47:56;;;;;;;37.13;23.52;;;;;;;;;;4911926;29;20374;-66
2022/09/24 06:50:24;;;;;;;36.95;23.33;;;;;;;;;;4907600;29;20440;-66
2022/09/24 06:52:49;;;;;;;34.65;21.73;;;;;;;;;;4912465;29;20187;-65
2022/09/24 06:55:15;;;;;;;33.38;21.85;;;;;;;;;;4915156;29;20523;-65
2022/09/24 06:57:41;;;;;;;34.15;20.75;;;;;;;;;;4917152;29;20032;-65
2022/09/24 07:00:07;;;;;;;28.42;20.00;;;;;;;;;;4918237;29;20044;-65
2022/09/24 07:02:32;;;;;;;29.98;20.45;;;;;;;;;;4896279;29;20393;-67
2022/09/24 07:04:58;;;;;;;35.83;20.92;;;;;;;;;;4917258;29;20040;-66
2022/09/24 07:07:30;;;;;;;30.42;19.45;;;;;;;;;;4915778;29;20466;-66
2022/09/24 07:09:56;;;;;;;31.38;21.00;;;;;;;;;;4917662;29;20461;-66
2022/09/24 07:12:22;;;;;;;33.92;20.27;;;;;;;;;;4916455;29;20032;-66
2022/09/24 07:14:47;;;;;;;28.90;20.45;;;;;;;;;;4917893;29;20335;-66
2022/09/24 07:17:13;;;;;;;33.15;20.20;;;;;;;;;;4917921;29;20035;-64
2022/09/24 07:19:38;;;;;;;29.27;20.83;;;;;;;;;;4917787;29;20115;-64
2022/09/24 07:22:04;;;;;;;30.98;20.77;;;;;;;;;;4913847;29;20043;-66
2022/09/24 07:24:30;;;;;;;32.58;19.80;;;;;;;;;;4916381;29;20040;-66
2022/09/24 07:26:55;;;;;;;32.05;19.83;;;;;;;;;;4917114;29;20042;-66
2022/09/24 07:29:21;;;;;;;28.17;19.17;;;;;;;;;;4916989;29;20059;-66
2022/09/24 07:31:47;;;;;;;27.40;19.38;;;;;;;;;;4914738;29;20062;-67
2022/09/24 07:34:15;;;;;;;26.33;18.90;;;;;;;;;;4915967;29;20217;-67
2022/09/24 07:36:41;;;;;;;29.40;19.15;;;;;;;;;;4900178;29;20433;-67
2022/09/24 07:39:06;;;;;;;25.38;17.30;;;;;;;;;;4915659;29;20031;-66
2022/09/24 07:41:32;;;;;;;26.08;16.17;;;;;;;;;;4906739;29;20036;-66
2022/09/24 07:43:59;;;;;;;26.13;17.30;;;;;;;;;;4916321;29;20032;-66
2022/09/24 07:46:25;;;;;;;22.65;16.63;;;;;;;;;;4917328;29;20046;-66
2022/09/24 07:48:56;;;;;;;30.75;17.13;;;;;;;;;;4916597;29;20036;-66
2022/09/24 07:51:24;;;;;;;24.55;16.95;;;;;;;;;;4901142;29;20483;-66
2022/09/24 07:53:50;;;;;;;24.98;16.65;;;;;;;;;;4915906;29;20036;-66
2022/09/24 07:56:16;;;;;;;23.98;16.58;;;;;;;;;;4900801;29;20067;-67
2022/09/24 07:58:42;;;;;;;22.30;16.27;;;;;;;;;;4914427;29;20115;-66
2022/09/24 08:01:07;;;;;;;29.10;15.93;;;;;;;;;;4914714;29;20131;-66
2022/09/24 08:03:32;;;;;;;22.58;15.45;;;;;;;;;;4916195;29;20079;-66
2022/09/24 08:06:00;;;;;;;26.05;15.70;;;;;;;;;;4915300;29;20028;-68
2022/09/24 08:08:25;;;;;;;23.17;15.82;;;;;;;;;;4912189;29;20111;-65
2022/09/24 08:10:51;;;;;;;23.15;15.90;;;;;;;;;;4916446;29;20130;-66
2022/09/24 08:13:16;;;;;;;28.95;15.45;;;;;;;;;;4917042;29;20036;-66
2022/09/24 08:15:42;;;;;;;22.98;14.90;;;;;;;;;;4915179;29;20393;-66
2022/09/24 08:18:08;;;;;;;22.08;13.93;;;;;;;;;;4889206;29;20040;-66
2022/09/24 08:20:36;;;;;;;26.15;14.20;;;;;;;;;;4912699;29;20499;-66
2022/09/24 08:23:06;;;;;;;20.02;13.30;;;;;;;;;;4928123;29;20057;-65
2022/09/24 08:25:32;;;;;;;20.52;13.85;;;;;;;;;;4916494;29;20102;-65
2022/09/24 08:28:05;;;;;;;23.17;13.60;;;;;;;;;;4917378;29;20470;-65
2022/09/24 08:30:31;;;;;;;19.50;12.93;;;;;;;;;;4915821;29;20084;-65
2022/09/24 08:32:57;;;;;;;22.73;13.65;;;;;;;;;;4916516;29;20052;-65
2022/09/24 08:35:23;;;;;;;20.15;12.57;;;;;;;;;;4909928;29;20032;-65
2022/09/24 08:37:48;;;;;;;21.52;13.48;;;;;;;;;;4912760;29;20037;-65
2022/09/24 08:40:18;;;;;;;19.23;12.32;;;;;;;;;;4905195;29;20029;-65
2022/09/24 08:42:54;;;;;;;22.88;13.30;;;;;;;;;;4915721;29;20040;-65
2022/09/24 08:48:13;;;;;;;19.13;13.13;;;;;;;;;;4913698;29;20515;-65
2022/09/24 08:50:47;;;;;;;23.25;13.63;;;;;;;;;;4915193;29;20036;-65
2022/09/24 08:53:30;;;;;;;20.83;13.82;;;;;;;;;;4909134;29;20078;-65
2022/09/24 08:55:59;;;;;;;21.73;13.18;;;;;;;;;;4918884;29;20032;-64
2022/09/24 08:58:34;;;;;;;22.80;13.50;;;;;;;;;;4916994;29;20087;-65
2022/09/24 09:01:20;;;;;;;20.08;13.48;;;;;;;;;;4908286;29;20040;-65
2022/09/24 09:04:10;;;;;;;20.52;13.90;;;;;;;;;;4914978;29;20542;-66
2022/09/24 09:07:00;;;;;;;23.63;13.67;;;;;;;;;;4915018;29;20032;-66
2022/09/24 09:09:39;;;;;;;21.08;13.65;;;;;;;;;;4915390;29;20334;-65
2022/09/24 09:12:12;;;;;;;22.00;13.75;;;;;;;;;;4916686;29;20040;-65
2022/09/24 09:14:56;;;;;;;19.45;13.55;;;;;;;;;;4908852;29;20028;-65
2022/09/24 09:17:33;;;;;;;23.40;13.73;;;;;;;;;;4919277;29;20398;-65
2022/09/24 09:20:04;;;;;;;21.88;13.05;;;;;;;;;;4916501;29;20118;-65
2022/09/24 09:22:33;;;;;;;;;;;;;;;;;;4916003;29;20047;-65
2022/09/24 09:25:11;;;;;;;20.77;13.10;;;;;;;;;;4913722;29;20332;-65
2022/09/24 09:27:37;;;;;;;18.27;12.57;;;;;;;;;;4914844;29;20040;-64
2022/09/24 09:30:06;;;;;;;21.52;13.05;;;;;;;;;;4910730;29;20024;-65
2022/09/24 09:33:01;;;;;;;20.40;13.57;;;;;;;;;;4915128;29;20036;-65
2022/09/24 09:35:32;;;;;;;22.20;13.15;;;;;;;;;;4916051;29;20040;-65
2022/09/24 09:38:00;;;;;;;;;;;;;;;;;;4916745;29;20032;-63
2022/09/24 09:40:26;;;;;;;19.70;11.77;;;;;;;;;;4904847;29;19933;-65
2022/09/24 09:43:04;;;;;;;17.77;12.38;;;;;;;;;;4896812;29;20489;-65
2022/09/24 09:45:57;;;;;;;18.30;11.90;;;;;;;;;;4924496;29;20058;-63
2022/09/24 09:48:27;;;;;;;17.25;11.20;;;;;;;;;;4935134;29;20039;-64
2022/09/24 09:50:59;;;;;;;18.33;10.82;;;;;;;;;;4923880;29;20425;-64
2022/09/24 09:53:30;;;;;;;14.50;9.90;;;;;;;;;;4912277;29;20036;-64
2022/09/24 09:55:58;;;;;;;15.73;10.10;;;;;;;;;;4915067;29;20380;-64
2022/09/24 09:58:27;;;;;;;15.88;9.68;;;;;;;;;;4914421;29;20040;-64
2022/09/24 10:01:08;;;;;;;16.25;10.57;;;;;;;;;;4915269;29;20095;-65
2022/09/24 10:03:45;;;;;;;18.13;10.13;;;;;;;;;;4907504;29;20087;-65
2022/09/24 10:06:13;;;;;;;14.65;9.50;;;;;;;;;;4913749;29;20047;-65
2022/09/24 10:08:39;;;;;;;15.82;9.57;;;;;;;;;;4914718;29;20393;-65
2022/09/24 10:11:06;;;;;;;13.63;9.25;;;;;;;;;;4914803;29;20429;-66
2022/09/24 10:13:32;;;;;;;16.75;9.55;;;;;;;;;;4908324;29;20039;-65
2022/09/24 10:16:00;;;;;;;15.70;9.45;;;;;;;;;;4914131;29;20037;-66
2022/09/24 10:18:33;;;;;;;15.55;8.10;;;;;;;;;;4912927;29;20042;-65
2022/09/24 10:21:01;;;;;;;13.60;8.63;;;;;;;;;;4915651;29;20087;-65
2022/09/24 10:23:36;;;;;;;12.25;8.05;;;;;;;;;;4914339;29;20479;-65
2022/09/24 10:26:04;;;;;;;10.25;5.93;;;;;;;;;;4894538;29;20050;-65
2022/09/24 10:31:24;;;;;;;9.65;6.30;;;;;;;;;;4912952;29;21350;-65
2022/09/24 10:33:54;;;;;;;9.95;6.60;;;;;;;;;;4914460;29;20422;-65
2022/09/24 10:36:23;;;;;;;9.93;7.00;;;;;;;;;;4913926;29;20044;-65
2022/09/24 10:39:19;;;;;;;12.85;7.95;;;;;;;;;;4911520;29;20036;-66
2022/09/24 10:41:50;;;;;;;11.77;8.18;;;;;;;;;;4913425;29;20040;-65
2022/09/24 10:44:17;;;;;;;11.85;8.40;;;;;;;;;;4914912;29;20032;-64
2022/09/24 10:46:51;;;;;;;13.32;8.85;;;;;;;;;;4912251;29;20099;-64
2022/09/24 10:49:17;;;;;;;13.10;8.20;;;;;;;;;;4915136;29;20042;-64
2022/09/24 10:52:02;;;;;;;13.00;8.55;;;;;;;;;;4913801;29;20044;-64
2022/09/24 10:54:55;;;;;;;14.73;9.50;;;;;;;;;;4884649;29;20060;-65
2022/09/24 10:57:30;;;;;;;11.65;8.35;;;;;;;;;;4914168;29;20058;-64
2022/09/24 11:00:18;;;;;;;12.95;8.35;;;;;;;;;;4911603;29;20076;-65
2022/09/24 11:03:14;;;;;;;11.32;8.65;;;;;;;;;;4913793;29;20039;-63
2022/09/24 11:05:51;;;;;;;12.13;9.05;;;;;;;;;;4876406;29;20051;-64
2022/09/24 11:08:35;;;;;;;13.20;8.45;;;;;;;;;;4913863;29;20052;-64
2022/09/24 11:11:13;;;;;;;16.02;9.48;;;;;;;;;;4896213;29;20068;-63
2022/09/24 11:14:00;;;;;;;13.85;9.05;;;;;;;;;;4904720;29;20028;-64
2022/09/24 11:17:03;;;;;;;13.45;8.98;;;;;;;;;;4914736;29;20079;-64
2022/09/24 11:19:47;;;;;;;14.68;9.35;;;;;;;;;;4912793;29;20054;-65
2022/09/24 11:22:28;;;;;;;16.05;9.25;;;;;;;;;;4896304;29;20131;-64
2022/09/24 11:25:15;;;;;;;13.18;9.30;;;;;;;;;;4913621;29;20036;-64
2022/09/24 11:28:07;;;;;;;13.88;8.38;;;;;;;;;;4895483;29;20033;-65
2022/09/24 11:31:08;;;;;;;11.48;8.30;;;;;;;;;;4913639;29;20115;-64
2022/09/24 11:34:22;;;;;;;13.10;7.95;;;;;;;;;;4913218;29;20028;-65
2022/09/24 11:37:08;;;;;;;11.95;7.40;;;;;;;;;;4895406;29;20036;-65
2022/09/24 11:39:58;;;;;;;13.05;8.55;;;;;;;;;;4910433;29;20095;-63
2022/09/24 11:42:29;;;;;;;11.77;7.70;;;;;;;;;;4907779;29;20032;-64
2022/09/24 11:45:33;;;;;;;14.25;8.27;;;;;;;;;;4913644;29;21161;-63
2022/09/24 11:48:23;;;;;;;12.00;7.97;;;;;;;;;;4864112;29;20828;-66
2022/09/24 11:51:00;;;;;;;14.45;9.25;;;;;;;;;;4913873;29;20036;-64
2022/09/24 11:53:44;;;;;;;13.43;9.07;;;;;;;;;;4913796;29;20473;-66
2022/09/24 11:56:10;;;;;;;12.60;9.27;;;;;;;;;;4915219;29;20032;-68
2022/09/24 11:58:43;;;;;;;13.50;9.27;;;;;;;;;;4914637;29;20389;-67
2022/09/24 12:01:32;;;;;;;13.23;9.30;;;;;;;;;;4913779;29;20039;-66
2022/09/24 12:04:08;;;;;;;15.60;9.48;;;;;;;;;;4917026;29;20060;-66
2022/09/24 12:06:44;;;;;;;13.13;9.68;;;;;;;;;;4909594;29;20172;-66
2022/09/24 12:09:38;;;;;;;15.23;9.75;;;;;;;;;;4916959;29;20047;-66
2022/09/24 12:12:13;;;;;;;15.77;10.60;;;;;;;;;;4898860;29;20409;-66
2022/09/24 12:14:56;;;;;;;14.88;10.60;;;;;;;;;;4914925;29;20036;-65
2022/09/24 12:17:32;;;;;;;13.75;9.80;;;;;;;;;;4917731;29;20489;-65
2022/09/24 12:20:06;;;;;;;16.40;10.38;;;;;;;;;;4916023;29;20056;-64
2022/09/24 12:22:36;;;;;;;14.27;9.73;;;;;;;;;;4916691;29;20036;-65
2022/09/24 12:25:02;;;;;;;14.98;9.75;;;;;;;;;;4914662;29;20135;-65
2022/09/24 12:27:36;;;;;;;13.93;9.75;;;;;;;;;;4916980;29;20505;-65
2022/09/24 12:33:12;;;;;;;14.68;9.65;;;;;;;;;;4911193;29;20060;-64
2022/09/24 12:35:56;;;;;;;14.20;10.38;;;;;;;;;;4908338;29;20350;-64
2022/09/24 12:38:53;;;;;;;14.70;9.90;;;;;;;;;;4915702;29;20042;-65
2022/09/24 12:41:32;;;;;;;13.57;9.63;;;;;;;;;;4912834;29;20044;-64
2022/09/24 12:44:10;;;;;;;12.30;8.88;;;;;;;;;;4912325;29;20032;-64
2022/09/24 12:46:52;;;;;;;13.13;9.35;;;;;;;;;;4913523;29;20036;-63
2022/09/24 12:49:24;;;;;;;12.82;9.32;;;;;;;;;;4891127;29;20047;-66
2022/09/24 12:51:54;;;;;;;14.65;9.10;;;;;;;;;;4918040;29;20091;-66
2022/09/24 12:54:30;;;;;;;15.60;8.95;;;;;;;;;;4913821;29;20032;-66
2022/09/24 12:57:19;;;;;;;13.68;9.50;;;;;;;;;;4915232;29;20093;-66
2022/09/24 12:59:58;;;;;;;13.00;9.55;;;;;;;;;;4911342;29;20031;-65
2022/09/24 13:02:26;;;;;;;13.15;9.38;;;;;;;;;;4914483;29;20167;-65
2022/09/24 13:05:01;;;;;;;12.98;8.93;;;;;;;;;;4912799;29;20048;-64
2022/09/24 13:07:31;;;;;;;14.15;9.35;;;;;;;;;;4909252;29;20040;-65
2022/09/24 13:09:56;;;;;;;13.53;9.17;;;;;;;;;;4919021;29;20103;-65
2022/09/24 13:12:30;;;;;;;11.07;8.35;;;;;;;;;;4914754;29;20417;-64
2022/09/24 13:15:03;;;;;;;11.48;8.25;;;;;;;;;;4913778;29;20039;-64
2022/09/24 13:17:32;;;;;;;10.55;7.93;;;;;;;;;;4927031;29;20036;-64
2022/09/24 13:20:03;;;;;;;10.13;7.88;;;;;;;;;;4915070;29;20038;-64
2022/09/24 13:22:30;;;;;;;;;;;;;;;;;;4915910;29;20040;-64
2022/09/24 13:25:07;;;;;;;12.45;8.38;;;;;;;;;;4916779;29;19922;-64
2022/09/24 13:27:41;;;;;;;11.63;8.00;;;;;;;;;;4923313;29;20365;-64
2022/09/24 13:30:20;;;;;;;12.02;8.07;;;;;;;;;;4913703;29;20028;-63
2022/09/24 13:32:56;;;;;;;11.23;7.60;;;;;;;;;;4915234;29;20036;-63
2022/09/24 13:35:26;;;;;;;10.52;7.85;;;;;;;;;;4915404;29;20480;-63
2022/09/24 13:38:00;;;;;;;11.25;7.80;;;;;;;;;;4896380;29;20039;-63
2022/09/24 13:40:30;;;;;;;13.18;7.90;;;;;;;;;;4904228;29;20428;-63
2022/09/24 13:43:01;;;;;;;10.88;7.80;;;;;;;;;;4913524;29;20106;-63
2022/09/24 13:45:27;;;;;;;10.57;7.80;;;;;;;;;;4914779;29;20040;-63
2022/09/24 13:48:03;;;;;;;9.77;7.55;;;;;;;;;;4914660;29;20228;-63
2022/09/24 13:50:37;;;;;;;9.93;7.30;;;;;;;;;;4918553;29;20473;-63
2022/09/24 13:53:17;;;;;;;11.32;7.65;;;;;;;;;;4921830;29;20040;-63
2022/09/24 13:55:49;;;;;;;12.75;7.63;;;;;;;;;;4914661;29;20517;-63
2022/09/24 13:58:44;;;;;;;10.07;7.45;;;;;;;;;;4914954;29;20044;-64
2022/09/24 14:01:28;;;;;;;9.50;7.38;;;;;;;;;;4903519;29;20123;-63
2022/09/24 14:04:00;;;;;;;9.82;6.43;;;;;;;;;;4913181;29;20139;-63
2022/09/24 14:06:44;;;;;;;10.52;7.95;;;;;;;;;;4914182;29;20040;-63
2022/09/24 14:09:22;;;;;;;10.90;7.60;;;;;;;;;;4913832;29;20027;-63
2022/09/24 14:11:49;;;;;;;10.85;7.53;;;;;;;;;;4912017;29;20528;-64
2022/09/24 14:14:22;;;;;;;12.77;8.40;;;;;;;;;;4897602;29;20028;-64
2022/09/24 14:16:47;;;;;;;12.07;8.35;;;;;;;;;;4921259;29;20044;-62
2022/09/24 14:19:14;;;;;;;9.48;7.53;;;;;;;;;;4922173;29;20051;-64
2022/09/24 14:21:43;;;;;;;12.57;8.55;;;;;;;;;;4903510;29;20115;-64
2022/09/24 14:24:38;;;;;;;11.27;8.18;;;;;;;;;;4914093;29;20449;-64
2022/09/24 14:27:08;;;;;;;11.48;8.25;;;;;;;;;;4901379;29;20052;-64
2022/09/24 14:29:41;;;;;;;11.30;8.30;;;;;;;;;;4898167;29;20541;-66
2022/09/24 14:32:18;;;;;;;11.05;7.72;;;;;;;;;;4910078;29;20032;-62
2022/09/24 14:34:44;;;;;;;12.80;7.90;;;;;;;;;;4913139;29;20036;-63
2022/09/24 14:37:34;;;;;;;10.95;7.38;;;;;;;;;;4915026;29;20606;-63
2022/09/24 14:40:05;;;;;;;12.23;7.72;;;;;;;;;;4914103;29;20059;-63
2022/09/24 14:42:42;;;;;;;9.27;7.20;;;;;;;;;;4914971;29;20032;-63
2022/09/24 14:45:09;;;;;;;11.43;7.50;;;;;;;;;;4915243;29;20056;-62
2022/09/24 14:47:36;;;;;;;11.90;7.80;;;;;;;;;;4914196;29;20075;-63
2022/09/24 14:50:03;;;;;;;10.18;7.22;;;;;;;;;;4915126;29;20133;-63
2022/09/24 14:52:36;;;;;;;11.20;7.50;;;;;;;;;;4914688;29;20031;-64
2022/09/24 14:55:19;;;;;;;11.18;7.50;;;;;;;;;;4913232;29;20433;-64
2022/09/24 14:57:47;;;;;;;10.48;7.18;;;;;;;;;;4910240;29;20464;-64
2022/09/24 15:00:20;;;;;;;10.98;7.15;;;;;;;;;;4918372;29;20114;-62
2022/09/24 15:03:13;;;;;;;12.02;7.60;;;;;;;;;;4913570;29;20111;-63
2022/09/24 15:05:39;;;;;;;10.50;6.97;;;;;;;;;;4910558;29;20451;-63
2022/09/24 15:08:22;;;;;;;10.98;7.20;;;;;;;;;;4886414;29;20140;-64